createdAt,value
2022-10-01T00:04:37.285Z,2.33
2022-10-01T00:07:09.469Z,1.92
2022-10-01T00:09:39.222Z,2.03
2022-10-01T00:12:07.258Z,1.50
2022-10-01T00:14:35.859Z,1.60
2022-10-01T00:17:03.727Z,2.28
2022-10-01T00:19:31.790Z,2.22
2022-10-01T00:21:59.541Z,1.52
2022-10-01T00:24:27.845Z,1.77
2022-10-01T00:29:25.748Z,2.03
2022-10-01T00:31:53.781Z,1.30
2022-10-01T00:34:21.924Z,1.20
2022-10-01T00:36:50.220Z,1.75
2022-10-01T00:44:33.595Z,1.05
2022-10-01T00:47:07.201Z,1.08
2022-10-01T00:49:37.802Z,1.00
2022-10-01T00:52:10.143Z,0.88
2022-10-01T00:54:43.240Z,1.08
2022-10-01T00:57:14.267Z,1.13
2022-10-01T00:59:44.365Z,1.27
2022-10-01T01:02:12.247Z,1.17
2022-10-01T01:04:41.381Z,1.08
2022-10-01T01:07:10.694Z,1.20
2022-10-01T01:09:47.964Z,1.02
2022-10-01T01:12:27.424Z,0.90
2022-10-01T01:15:10.389Z,1.33
2022-10-01T01:17:49.492Z,1.38
2022-10-01T01:20:40.099Z,1.35
2022-10-01T01:23:27.254Z,0.90
2022-10-01T01:26:00.488Z,0.80
2022-10-01T01:28:33.998Z,1.10
2022-10-01T01:31:07.582Z,0.98
2022-10-01T01:33:38.088Z,0.80
2022-10-01T01:36:09.814Z,0.93
2022-10-01T01:38:43.956Z,0.80
2022-10-01T01:41:14.341Z,1.13
2022-10-01T01:43:47.137Z,1.00
2022-10-01T01:46:17.684Z,0.68
2022-10-01T01:48:49.219Z,0.80
2022-10-01T01:51:24.341Z,1.20
2022-10-01T01:53:52.556Z,0.73
2022-10-01T01:56:20.471Z,0.82
2022-10-01T01:58:49.761Z,0.98
2022-10-01T02:01:39.343Z,0.60
2022-10-01T02:04:21.103Z,0.75
2022-10-01T02:07:16.243Z,0.60
2022-10-01T02:09:53.285Z,0.90
2022-10-01T02:12:32.843Z,0.80
2022-10-01T02:15:10.007Z,0.63
2022-10-01T02:17:50.834Z,0.60
2022-10-01T02:20:22.633Z,1.00
2022-10-01T02:22:55.517Z,0.63
2022-10-01T02:25:27.896Z,0.75
2022-10-01T02:28:01.027Z,0.65
2022-10-01T02:30:32.949Z,0.70
2022-10-01T02:33:03.713Z,0.60
2022-10-01T02:35:35.479Z,0.60
2022-10-01T02:38:07.066Z,0.70
2022-10-01T02:40:39.143Z,0.60
2022-10-01T02:43:13.144Z,0.60
2022-10-01T02:45:47.370Z,0.68
2022-10-01T02:48:17.559Z,0.75
2022-10-01T02:50:50.435Z,0.65
2022-10-01T02:53:23.670Z,0.73
2022-10-01T02:55:53.639Z,0.70
2022-10-01T02:58:21.122Z,0.80
2022-10-01T03:00:50.419Z,0.90
2022-10-01T03:03:18.323Z,0.82
2022-10-01T03:05:46.136Z,0.68
2022-10-01T03:08:13.967Z,1.00
2022-10-01T03:10:46.512Z,0.60
2022-10-01T03:13:14.894Z,1.00
2022-10-01T03:15:42.633Z,1.00
2022-10-01T03:18:11.997Z,0.82
2022-10-01T03:20:41.446Z,0.85
2022-10-01T03:23:09.346Z,1.33
2022-10-01T03:25:37.444Z,1.00
2022-10-01T03:28:05.426Z,0.85
2022-10-01T03:30:34.472Z,0.80
2022-10-01T03:33:02.251Z,0.70
2022-10-01T03:35:32.233Z,1.00
2022-10-01T03:38:00.054Z,0.90
2022-10-01T03:40:28.028Z,1.10
2022-10-01T03:42:56.057Z,0.93
2022-10-01T03:45:23.799Z,0.80
2022-10-01T03:47:54.627Z,1.13
2022-10-01T03:50:22.669Z,1.13
2022-10-01T03:52:51.824Z,1.00
2022-10-01T03:55:19.964Z,1.33
2022-10-01T03:57:48.198Z,1.10
2022-10-01T04:02:43.835Z,1.13
2022-10-01T04:05:12.449Z,1.20
2022-10-01T04:07:42.503Z,1.23
2022-10-01T04:10:11.910Z,1.38
2022-10-01T04:12:39.704Z,1.20
2022-10-01T04:15:08.246Z,1.45
2022-10-01T04:17:37.797Z,1.40
2022-10-01T04:20:06.280Z,1.05
2022-10-01T04:22:39.777Z,1.40
2022-10-01T04:25:10.492Z,1.17
2022-10-01T04:27:39.683Z,1.30
2022-10-01T04:30:09.701Z,1.20
2022-10-01T04:32:38.528Z,1.20
2022-10-01T04:35:11.590Z,1.33
2022-10-01T04:37:39.492Z,1.58
2022-10-01T04:40:08.258Z,1.55
2022-10-01T04:42:35.956Z,1.80
2022-10-01T04:45:05.933Z,1.48
2022-10-01T04:47:37.467Z,1.50
2022-10-01T04:50:06.454Z,1.52
2022-10-01T04:52:34.130Z,1.65
2022-10-01T04:55:01.883Z,1.40
2022-10-01T04:57:30.022Z,1.40
2022-10-01T05:02:26.851Z,1.33
2022-10-01T05:04:54.698Z,1.42
2022-10-01T05:07:22.932Z,1.70
2022-10-01T05:12:22.335Z,1.67
2022-10-01T05:14:52.483Z,1.80
2022-10-01T05:17:20.737Z,2.00
2022-10-01T05:22:19.382Z,1.90
2022-10-01T05:24:47.546Z,1.90
2022-10-01T05:27:15.515Z,2.30
2022-10-01T05:29:43.668Z,2.03
2022-10-01T05:32:13.578Z,2.25
2022-10-01T05:34:42.022Z,1.92
2022-10-01T05:37:12.108Z,2.33
2022-10-01T05:39:39.961Z,1.90
2022-10-01T05:42:07.740Z,2.13
2022-10-01T05:44:38.098Z,1.90
2022-10-01T05:47:06.955Z,2.08
2022-10-01T05:49:35.152Z,2.08
2022-10-01T05:54:32.042Z,1.92
2022-10-01T05:56:59.819Z,1.92
2022-10-01T05:59:31.710Z,1.70
2022-10-01T06:02:00.007Z,1.98
2022-10-01T06:04:28.021Z,2.17
2022-10-01T06:06:56.242Z,2.03
2022-10-01T06:11:53.178Z,1.33
2022-10-01T06:14:20.884Z,1.83
2022-10-01T06:16:48.671Z,1.88
2022-10-01T06:19:17.507Z,1.55
2022-10-01T06:21:45.416Z,1.95
2022-10-01T06:24:13.242Z,1.90
2022-10-01T06:26:41.175Z,1.77
2022-10-01T06:29:11.488Z,1.70
2022-10-01T06:31:39.425Z,1.60
2022-10-01T06:34:07.364Z,1.70
2022-10-01T06:36:35.402Z,1.83
2022-10-01T06:39:03.880Z,1.88
2022-10-01T06:41:31.863Z,1.90
2022-10-01T06:43:59.816Z,1.60
2022-10-01T06:46:29.336Z,1.73
2022-10-01T06:48:57.271Z,1.92
2022-10-01T06:51:46.900Z,1.92
2022-10-01T06:54:14.620Z,1.20
2022-10-01T06:56:42.503Z,2.00
2022-10-01T06:59:10.341Z,2.15
2022-10-01T07:01:39.627Z,2.13
2022-10-01T07:04:08.081Z,2.10
2022-10-01T07:06:36.001Z,2.13
2022-10-01T07:09:03.894Z,1.90
2022-10-01T07:11:31.965Z,2.10
2022-10-01T07:14:01.563Z,2.20
2022-10-01T07:16:29.540Z,2.60
2022-10-01T07:18:58.751Z,2.10
2022-10-01T07:21:26.579Z,1.92
2022-10-01T07:23:54.473Z,2.10
2022-10-01T07:26:22.300Z,2.22
2022-10-01T07:28:50.196Z,1.85
2022-10-01T07:31:18.586Z,1.85
2022-10-01T07:33:47.236Z,1.90
2022-10-01T07:36:16.684Z,2.17
2022-10-01T07:38:45.941Z,1.98
2022-10-01T07:41:16.742Z,1.73
2022-10-01T07:43:47.989Z,2.25
2022-10-01T07:46:15.806Z,1.90
2022-10-01T07:48:46.400Z,2.20
2022-10-01T07:51:14.342Z,1.90
2022-10-01T07:53:43.643Z,1.85
2022-10-01T07:56:11.407Z,1.88
2022-10-01T07:58:39.255Z,2.25
2022-10-01T08:01:07.215Z,2.03
2022-10-01T08:03:35.122Z,2.17
2022-10-01T08:06:03.471Z,1.85
2022-10-01T08:08:32.079Z,1.90
2022-10-01T08:11:03.602Z,1.92
2022-10-01T08:13:31.571Z,2.08
2022-10-01T08:15:59.386Z,2.25
2022-10-01T08:18:27.414Z,2.05
2022-10-01T08:20:55.283Z,2.03
2022-10-01T08:23:23.319Z,2.00
2022-10-01T08:25:51.198Z,1.65
2022-10-01T08:28:20.570Z,2.00
2022-10-01T08:30:48.350Z,1.85
2022-10-01T08:33:16.288Z,1.75
2022-10-01T08:35:44.651Z,1.52
2022-10-01T08:38:13.487Z,1.42
2022-10-01T08:40:44.986Z,1.70
2022-10-01T08:43:30.536Z,1.27
2022-10-01T08:46:02.646Z,1.05
2022-10-01T08:48:41.389Z,1.25
2022-10-01T08:51:14.960Z,1.80
2022-10-01T08:53:46.861Z,1.52
2022-10-01T08:56:22.803Z,1.48
2022-10-01T08:58:59.499Z,0.95
2022-10-01T09:01:28.535Z,1.83
2022-10-01T09:03:57.009Z,1.42
2022-10-01T09:06:27.359Z,1.63
2022-10-01T09:09:17.296Z,1.52
2022-10-01T09:12:03.388Z,1.10
2022-10-01T09:14:48.871Z,1.33
2022-10-01T09:17:24.512Z,1.52
2022-10-01T09:20:06.738Z,1.77
2022-10-01T09:22:39.909Z,1.50
2022-10-01T09:25:23.165Z,1.50
2022-10-01T09:27:52.475Z,1.55
2022-10-01T09:30:24.815Z,1.60
2022-10-01T09:32:57.335Z,1.58
2022-10-01T09:35:35.179Z,1.50
2022-10-01T09:38:09.285Z,2.13
2022-10-01T09:40:47.540Z,1.63
2022-10-01T09:43:21.966Z,1.52
2022-10-01T09:45:51.771Z,1.23
2022-10-01T09:48:28.811Z,1.88
2022-10-01T09:51:00.385Z,1.95
2022-10-01T09:53:36.011Z,2.05
2022-10-01T09:56:11.399Z,1.65
2022-10-01T09:58:43.048Z,1.63
2022-10-01T10:01:21.873Z,2.25
2022-10-01T10:03:58.351Z,1.92
2022-10-01T10:06:33.065Z,2.15
2022-10-01T10:09:02.789Z,1.52
2022-10-01T10:11:32.901Z,1.80
2022-10-01T10:14:03.641Z,2.20
2022-10-01T10:16:37.228Z,1.95
2022-10-01T10:19:09.753Z,1.73
2022-10-01T10:21:37.880Z,1.85
2022-10-01T10:26:38.598Z,1.30
2022-10-01T10:29:08.669Z,1.88
2022-10-01T10:31:43.250Z,1.50
2022-10-01T10:34:16.726Z,1.48
2022-10-01T10:36:46.750Z,1.80
2022-10-01T10:39:21.232Z,1.80
2022-10-01T10:44:21.421Z,1.23
2022-10-01T10:46:53.585Z,0.95
2022-10-01T10:49:26.220Z,1.35
2022-10-01T10:51:55.837Z,1.40
2022-10-01T10:54:26.904Z,1.33
2022-10-01T10:57:01.217Z,1.75
2022-10-01T10:59:33.650Z,1.23
2022-10-01T11:02:07.177Z,1.50
2022-10-01T11:04:42.658Z,1.10
2022-10-01T11:07:13.519Z,1.55
2022-10-01T11:10:12.627Z,1.50
2022-10-01T11:12:58.968Z,1.35
2022-10-01T11:15:45.476Z,1.25
2022-10-01T11:18:35.006Z,1.17
2022-10-01T11:21:17.568Z,1.50
2022-10-01T11:24:01.956Z,1.63
2022-10-01T11:26:38.315Z,1.25
2022-10-01T11:29:16.126Z,0.68
2022-10-01T11:31:53.821Z,1.33
2022-10-01T11:34:49.587Z,0.95
2022-10-01T11:37:31.187Z,1.50
2022-10-01T11:40:04.919Z,1.30
2022-10-01T11:42:38.046Z,1.27
2022-10-01T11:45:15.263Z,1.27
2022-10-01T11:47:48.166Z,1.23
2022-10-01T11:50:21.499Z,0.95
2022-10-01T11:52:54.674Z,1.48
2022-10-01T11:55:44.850Z,1.40
2022-10-01T11:58:37.323Z,1.42
2022-10-01T12:01:12.432Z,1.55
2022-10-01T12:03:56.692Z,1.10
2022-10-01T12:06:33.795Z,1.40
2022-10-01T12:09:07.209Z,1.42
2022-10-01T12:11:42.414Z,1.35
2022-10-01T12:14:13.717Z,1.17
2022-10-01T12:16:47.907Z,1.35
2022-10-01T12:19:21.860Z,1.02
2022-10-01T12:21:56.819Z,0.98
2022-10-01T12:24:30.078Z,1.27
2022-10-01T12:27:15.740Z,1.60
2022-10-01T12:29:50.924Z,1.10
2022-10-01T12:32:31.748Z,0.68
2022-10-01T12:37:58.430Z,0.93
2022-10-01T12:40:34.091Z,0.88
2022-10-01T12:43:20.962Z,1.27
2022-10-01T12:45:57.051Z,1.17
2022-10-01T12:48:32.691Z,1.00
2022-10-01T12:51:16.507Z,1.23
2022-10-01T12:53:53.574Z,1.25
2022-10-01T12:56:30.926Z,1.23
2022-10-01T12:59:25.671Z,0.95
2022-10-01T13:02:07.537Z,1.23
2022-10-01T13:04:57.708Z,1.30
2022-10-01T13:07:50.254Z,0.93
2022-10-01T13:10:33.230Z,0.93
2022-10-01T13:13:07.827Z,0.70
2022-10-01T13:15:38.312Z,1.10
2022-10-01T13:18:21.918Z,1.73
2022-10-01T13:20:57.306Z,3.63
2022-10-01T13:23:32.694Z,1.00
2022-10-01T13:26:09.821Z,1.13
2022-10-01T13:28:54.196Z,1.83
2022-10-01T13:31:35.157Z,2.38
2022-10-01T13:34:03.427Z,0.55
2022-10-01T13:36:34.162Z,1.45
2022-10-01T13:39:03.189Z,0.70
2022-10-01T13:41:34.457Z,0.73
2022-10-01T13:44:16.987Z,0.65
2022-10-01T13:46:52.604Z,0.90
2022-10-01T13:49:25.312Z,0.98
2022-10-01T13:51:53.745Z,0.95
2022-10-01T13:54:27.679Z,0.63
2022-10-01T13:56:56.969Z,0.80
2022-10-01T13:59:33.687Z,1.50
2022-10-01T14:02:03.060Z,0.65
2022-10-01T14:04:39.291Z,0.82
2022-10-01T14:07:16.905Z,0.80
2022-10-01T14:09:49.346Z,0.88
2022-10-01T14:12:36.475Z,0.65
2022-10-01T14:15:34.121Z,0.70
2022-10-01T14:18:07.498Z,0.40
2022-10-01T14:20:50.096Z,1.23
2022-10-01T14:23:22.882Z,0.73
2022-10-01T14:25:58.766Z,0.75
2022-10-01T14:28:45.469Z,0.47
2022-10-01T14:31:22.139Z,0.90
2022-10-01T14:34:29.446Z,0.52
2022-10-01T14:36:58.057Z,0.85
2022-10-01T14:39:28.288Z,0.70
2022-10-01T14:41:57.739Z,0.60
2022-10-01T14:44:29.643Z,0.73
2022-10-01T14:46:59.040Z,1.15
2022-10-01T14:49:28.375Z,1.77
2022-10-01T14:52:01.493Z,4.57
2022-10-01T14:54:31.170Z,1.33
2022-10-01T14:56:59.625Z,1.10
2022-10-01T14:59:35.908Z,1.10
2022-10-01T15:02:17.159Z,0.82
2022-10-01T15:04:47.421Z,0.93
2022-10-01T15:07:17.131Z,0.73
2022-10-01T15:09:45.468Z,0.98
2022-10-01T15:12:15.405Z,0.75
2022-10-01T15:14:45.926Z,0.75
2022-10-01T15:17:22.103Z,0.55
2022-10-01T15:19:53.571Z,0.88
2022-10-01T15:22:25.289Z,1.00
2022-10-01T15:24:57.071Z,1.00
2022-10-01T15:27:26.100Z,0.82
2022-10-01T15:29:58.695Z,0.80
2022-10-01T15:32:28.800Z,1.42
2022-10-01T15:34:59.176Z,0.73
2022-10-01T15:37:32.034Z,1.10
2022-10-01T15:40:01.971Z,0.68
2022-10-01T15:42:32.921Z,1.13
2022-10-01T15:45:25.279Z,1.02
2022-10-01T15:47:57.070Z,1.05
2022-10-01T15:50:28.319Z,0.90
2022-10-01T15:53:03.690Z,0.82
2022-10-01T15:55:35.735Z,1.42
2022-10-01T15:58:08.082Z,1.50
2022-10-01T16:00:45.235Z,0.98
2022-10-01T16:03:20.232Z,0.90
2022-10-01T16:05:49.617Z,1.50
2022-10-01T16:08:21.878Z,0.80
2022-10-01T16:11:08.633Z,1.00
2022-10-01T16:13:39.356Z,0.98
2022-10-01T16:16:20.963Z,0.98
2022-10-01T16:18:54.022Z,1.15
2022-10-01T16:21:22.770Z,1.05
2022-10-01T16:23:53.056Z,1.73
2022-10-01T16:26:37.803Z,1.25
2022-10-01T16:29:19.393Z,1.20
2022-10-01T16:31:48.995Z,1.45
2022-10-01T16:34:18.714Z,1.17
2022-10-01T16:36:46.651Z,1.17
2022-10-01T16:39:15.440Z,1.13
2022-10-01T16:41:45.197Z,1.25
2022-10-01T16:44:14.842Z,1.30
2022-10-01T16:46:42.875Z,1.23
2022-10-01T16:51:42.745Z,1.67
2022-10-01T16:54:22.950Z,1.65
2022-10-01T16:56:51.893Z,1.50
2022-10-01T16:59:22.442Z,1.50
2022-10-01T17:01:53.660Z,1.70
2022-10-01T17:04:23.858Z,2.05
2022-10-01T17:06:53.069Z,1.73
2022-10-01T17:09:20.992Z,1.50
2022-10-01T17:11:49.116Z,1.98
2022-10-01T17:16:47.669Z,1.50
2022-10-01T17:19:16.120Z,1.90
2022-10-01T17:21:45.890Z,1.70
2022-10-01T17:24:13.922Z,2.05
2022-10-01T17:26:45.266Z,3.42
2022-10-01T17:29:13.572Z,1.90
2022-10-01T17:31:44.826Z,1.50
2022-10-01T17:34:13.301Z,1.63
2022-10-01T17:36:41.201Z,1.75
2022-10-01T17:39:10.383Z,1.65
2022-10-01T17:41:38.243Z,1.85
2022-10-01T17:44:06.012Z,1.42
2022-10-01T17:46:34.062Z,1.65
2022-10-01T17:49:02.127Z,1.55
2022-10-01T17:51:30.067Z,1.42
2022-10-01T17:53:59.849Z,1.92
2022-10-01T17:56:31.684Z,1.77
2022-10-01T17:59:00.024Z,1.85
2022-10-01T18:01:28.300Z,1.52
2022-10-01T18:03:57.660Z,2.10
2022-10-01T18:06:26.201Z,2.00
2022-10-01T18:08:55.941Z,1.88
2022-10-01T18:11:25.326Z,1.70
2022-10-01T18:13:54.517Z,1.70
2022-10-01T18:16:23.407Z,1.92
2022-10-01T18:21:44.268Z,1.73
2022-10-01T18:24:12.333Z,1.70
2022-10-01T18:26:40.146Z,1.77
2022-10-01T18:29:09.513Z,1.70
2022-10-01T18:31:40.655Z,1.88
2022-10-01T18:34:17.217Z,2.08
2022-10-01T18:36:55.001Z,1.88
2022-10-01T18:39:29.161Z,2.08
2022-10-01T18:41:58.173Z,1.70
2022-10-01T18:44:27.619Z,2.05
2022-10-01T18:47:19.268Z,1.70
2022-10-01T18:49:58.130Z,1.80
2022-10-01T18:52:36.156Z,1.52
2022-10-01T18:55:21.463Z,2.70
2022-10-01T18:58:08.456Z,1.98
2022-10-01T19:00:43.817Z,2.33
2022-10-01T19:03:32.513Z,2.67
2022-10-01T19:06:13.012Z,1.70
2022-10-01T19:08:53.810Z,2.00
2022-10-01T19:11:32.602Z,1.65
2022-10-01T19:14:09.794Z,1.75
2022-10-01T19:16:48.191Z,2.15
2022-10-01T19:19:30.899Z,2.17
2022-10-01T19:22:01.991Z,1.75
2022-10-01T19:24:58.491Z,1.95
2022-10-01T19:27:41.792Z,1.63
2022-10-01T19:30:13.139Z,1.90
2022-10-01T19:32:47.456Z,2.58
2022-10-01T19:35:20.716Z,2.10
2022-10-01T19:37:52.439Z,1.80
2022-10-01T19:40:30.243Z,1.90
2022-10-01T19:43:08.403Z,1.83
2022-10-01T19:45:45.718Z,1.92
2022-10-01T19:48:20.223Z,2.28
2022-10-01T19:50:54.329Z,1.80
2022-10-01T19:53:27.268Z,1.73
2022-10-01T19:55:57.089Z,2.42
2022-10-01T19:58:25.646Z,2.08
2022-10-01T20:00:57.260Z,1.92
2022-10-01T20:03:36.415Z,2.05
2022-10-01T20:06:08.785Z,2.20
2022-10-01T20:08:42.493Z,1.77
2022-10-01T20:11:19.951Z,2.03
2022-10-01T20:14:04.511Z,2.10
2022-10-01T20:16:40.862Z,1.92
2022-10-01T20:19:20.313Z,2.15
2022-10-01T20:21:57.601Z,2.35
2022-10-01T20:24:39.034Z,2.22
2022-10-01T20:27:19.950Z,1.90
2022-10-01T20:29:56.244Z,1.75
2022-10-01T20:32:30.478Z,2.35
2022-10-01T20:35:10.971Z,1.90
2022-10-01T20:37:52.464Z,1.85
2022-10-01T20:40:25.505Z,1.63
2022-10-01T20:43:00.628Z,1.83
2022-10-01T20:45:30.941Z,2.13
2022-10-01T20:48:02.915Z,2.00
2022-10-01T20:50:36.143Z,1.70
2022-10-01T20:53:14.257Z,1.73
2022-10-01T20:55:47.460Z,2.22
2022-10-01T20:58:18.408Z,1.88
2022-10-01T21:00:48.094Z,2.17
2022-10-01T21:03:23.967Z,1.65
2022-10-01T21:05:58.663Z,1.98
2022-10-01T21:08:42.171Z,2.40
2022-10-01T21:11:15.145Z,2.53
2022-10-01T21:13:50.315Z,2.38
2022-10-01T21:16:46.879Z,2.00
2022-10-01T21:19:27.911Z,1.85
2022-10-01T21:24:44.315Z,2.47
2022-10-01T21:27:28.039Z,2.20
2022-10-01T21:30:13.028Z,1.88
2022-10-01T21:33:02.280Z,2.55
2022-10-01T21:35:37.736Z,2.50
2022-10-01T21:38:15.145Z,2.55
2022-10-01T21:40:54.049Z,2.35
2022-10-01T21:43:35.756Z,2.60
2022-10-01T21:46:11.689Z,2.20
2022-10-01T21:48:47.914Z,2.15
2022-10-01T21:51:18.535Z,2.75
2022-10-01T21:54:07.426Z,2.80
2022-10-01T21:57:01.502Z,2.08
2022-10-01T22:00:04.908Z,2.35
2022-10-01T22:02:42.667Z,2.70
2022-10-01T22:05:22.686Z,2.50
2022-10-01T22:08:01.453Z,2.42
2022-10-01T22:10:37.412Z,2.30
2022-10-01T22:13:12.439Z,2.08
2022-10-01T22:15:42.062Z,3.03
2022-10-01T22:18:17.582Z,2.60
2022-10-01T22:20:47.901Z,2.70
2022-10-01T22:23:19.415Z,2.83
2022-10-01T22:25:54.816Z,2.20
2022-10-01T22:28:28.238Z,3.20
2022-10-01T22:31:00.951Z,3.03
2022-10-01T22:33:35.397Z,2.85
2022-10-01T22:36:10.520Z,2.15
2022-10-01T22:38:44.558Z,2.28
2022-10-01T22:41:20.736Z,2.47
2022-10-01T22:43:48.695Z,2.35
2022-10-01T22:46:58.617Z,2.33
2022-10-01T22:49:38.680Z,2.35
2022-10-01T22:52:18.920Z,2.58
2022-10-01T22:55:01.256Z,2.22
2022-10-01T22:57:49.391Z,2.25
2022-10-01T23:00:18.548Z,2.30
2022-10-01T23:02:56.118Z,2.22
2022-10-01T23:05:41.984Z,2.08
2022-10-01T23:08:20.548Z,2.67
2022-10-01T23:11:02.681Z,2.67
2022-10-01T23:13:39.700Z,2.28
2022-10-01T23:16:17.182Z,2.22
2022-10-01T23:18:55.362Z,2.67
2022-10-01T23:21:33.850Z,2.30
2022-10-01T23:24:14.843Z,2.85
2022-10-01T23:29:46.648Z,2.08
2022-10-01T23:32:24.736Z,2.25
2022-10-01T23:35:01.169Z,2.10
2022-10-01T23:38:02.991Z,2.10
2022-10-01T23:40:35.686Z,2.50
2022-10-01T23:43:11.495Z,2.47
2022-10-01T23:45:47.741Z,2.63
2022-10-01T23:48:22.270Z,2.70
2022-10-01T23:50:59.094Z,2.30
2022-10-01T23:53:32.246Z,2.45
2022-10-01T23:56:23.043Z,2.78
2022-10-01T23:58:56.518Z,3.03
